createdAt,value
2018-12-23T00:02:24.036Z,51.50
2018-12-23T00:04:52.728Z,51.50
2018-12-23T00:07:21.471Z,51.50
2018-12-23T00:09:49.797Z,51.50
2018-12-23T00:12:18.215Z,51.50
2018-12-23T00:14:46.362Z,51.60
2018-12-23T00:17:15.426Z,51.50
2018-12-23T00:19:43.921Z,51.50
2018-12-23T00:22:12.305Z,51.50
2018-12-23T00:24:40.490Z,51.40
2018-12-23T00:27:09.191Z,51.40
2018-12-23T00:29:37.940Z,51.40
2018-12-23T00:32:07.638Z,51.40
2018-12-23T00:34:36.332Z,51.40
2018-12-23T00:37:05.143Z,51.40
2018-12-23T00:39:33.882Z,51.30
2018-12-23T00:42:03.183Z,51.30
2018-12-23T00:44:31.453Z,51.30
2018-12-23T00:46:59.736Z,51.30
2018-12-23T00:49:27.910Z,51.20
2018-12-23T00:51:56.101Z,51.20
2018-12-23T00:54:25.270Z,51.20
2018-12-23T00:56:53.977Z,51.20
2018-12-23T00:59:22.237Z,51.20
2018-12-23T01:01:50.437Z,51.20
2018-12-23T01:04:19.372Z,51.20
2018-12-23T01:06:48.930Z,51.20
2018-12-23T01:09:17.919Z,51.20
2018-12-23T01:11:47.097Z,51.10
2018-12-23T01:14:15.377Z,51.10
2018-12-23T01:16:43.569Z,51.10
2018-12-23T01:19:11.818Z,51.00
2018-12-23T01:21:40.077Z,51.00
2018-12-23T01:24:08.861Z,51.00
2018-12-23T01:26:37.061Z,51.00
2018-12-23T01:29:05.259Z,51.00
2018-12-23T01:31:33.672Z,51.10
2018-12-23T01:34:01.875Z,50.90
2018-12-23T01:36:30.142Z,50.90
2018-12-23T01:38:58.361Z,51.00
2018-12-23T01:41:26.544Z,51.00
2018-12-23T01:43:54.729Z,51.00
2018-12-23T01:46:22.921Z,51.00
2018-12-23T01:48:51.115Z,50.90
2018-12-23T01:51:19.307Z,51.20
2018-12-23T01:53:47.574Z,50.90
2018-12-23T01:56:15.785Z,51.00
2018-12-23T01:58:43.954Z,51.00
2018-12-23T02:01:12.226Z,51.00
2018-12-23T02:03:40.485Z,51.00
2018-12-23T02:06:08.673Z,51.10
2018-12-23T02:08:37.703Z,51.10
2018-12-23T02:11:06.011Z,51.10
2018-12-23T02:13:34.322Z,51.80
2018-12-23T02:16:02.666Z,51.00
2018-12-23T02:18:30.862Z,51.10
2018-12-23T02:20:59.064Z,51.10
2018-12-23T02:23:27.261Z,51.70
2018-12-23T02:25:55.439Z,51.10
2018-12-23T02:28:23.635Z,51.20
2018-12-23T02:30:51.813Z,51.10
2018-12-23T02:33:20.054Z,51.10
2018-12-23T02:35:55.432Z,51.10
2018-12-23T02:38:18.437Z,51.20
2018-12-23T02:40:47.176Z,51.10
2018-12-23T02:43:15.454Z,51.10
2018-12-23T02:45:43.716Z,51.10
2018-12-23T02:48:11.985Z,51.10
2018-12-23T02:50:40.164Z,51.00
2018-12-23T02:53:08.694Z,51.00
2018-12-23T02:55:36.950Z,51.10
2018-12-23T02:58:05.217Z,50.90
2018-12-23T03:00:33.825Z,51.00
2018-12-23T03:03:02.005Z,51.00
2018-12-23T03:05:30.214Z,51.00
2018-12-23T03:07:58.394Z,51.00
2018-12-23T03:10:26.667Z,50.90
2018-12-23T03:12:54.858Z,51.00
2018-12-23T03:15:23.168Z,50.90
2018-12-23T03:17:51.468Z,50.90
2018-12-23T03:20:19.980Z,50.90
2018-12-23T03:22:48.254Z,50.90
2018-12-23T03:25:16.538Z,50.90
2018-12-23T03:27:45.184Z,50.90
2018-12-23T03:30:13.526Z,50.90
2018-12-23T03:32:41.803Z,51.00
2018-12-23T03:35:10.254Z,51.00
2018-12-23T03:37:39.169Z,50.90
2018-12-23T03:40:07.567Z,50.90
2018-12-23T03:42:36.748Z,50.90
2018-12-23T03:45:06.356Z,51.00
2018-12-23T03:47:34.589Z,50.90
2018-12-23T03:50:02.889Z,50.90
2018-12-23T03:52:31.191Z,50.90
2018-12-23T03:54:59.400Z,50.90
2018-12-23T03:57:27.717Z,50.90
2018-12-23T03:59:55.938Z,51.50
2018-12-23T04:02:24.149Z,50.90
2018-12-23T04:04:52.409Z,50.90
2018-12-23T04:07:20.637Z,50.90
2018-12-23T04:09:48.861Z,50.90
2018-12-23T04:12:17.163Z,51.60
2018-12-23T04:14:45.454Z,50.90
2018-12-23T04:17:13.781Z,50.90
2018-12-23T04:19:43.437Z,50.90
2018-12-23T04:22:12.249Z,50.90
2018-12-23T04:24:42.569Z,50.90
2018-12-23T04:27:10.813Z,50.90
2018-12-23T04:29:39.584Z,50.90
2018-12-23T04:32:07.823Z,50.90
2018-12-23T04:34:36.034Z,50.90
2018-12-23T04:37:04.237Z,50.90
2018-12-23T04:39:32.531Z,50.80
2018-12-23T04:42:00.746Z,50.90
2018-12-23T04:44:28.963Z,50.90
2018-12-23T04:46:58.035Z,50.90
2018-12-23T04:49:26.594Z,50.80
2018-12-23T04:51:54.890Z,50.80
2018-12-23T04:54:23.437Z,50.80
2018-12-23T04:56:53.363Z,50.80
2018-12-23T04:59:21.585Z,50.80
2018-12-23T05:01:49.841Z,50.80
2018-12-23T05:04:18.757Z,50.80
2018-12-23T05:06:47.890Z,50.90
2018-12-23T05:09:17.213Z,50.80
2018-12-23T05:11:46.012Z,50.80
2018-12-23T05:14:14.305Z,50.80
2018-12-23T05:16:42.553Z,50.80
2018-12-23T05:19:10.769Z,50.90
2018-12-23T05:21:38.988Z,50.90
2018-12-23T05:24:07.197Z,50.90
2018-12-23T05:26:35.413Z,50.90
2018-12-23T05:29:03.882Z,50.90
2018-12-23T05:31:32.109Z,50.90
2018-12-23T05:34:01.324Z,50.80
2018-12-23T05:36:29.541Z,50.80
2018-12-23T05:38:59.777Z,50.90
2018-12-23T05:41:27.997Z,50.90
2018-12-23T05:43:56.315Z,50.90
2018-12-23T05:46:24.607Z,51.00
2018-12-23T05:48:52.902Z,51.00
2018-12-23T05:51:21.132Z,50.90
2018-12-23T05:53:50.423Z,50.90
2018-12-23T05:56:18.631Z,51.00
2018-12-23T05:58:47.792Z,50.90
2018-12-23T06:01:16.577Z,51.00
2018-12-23T06:03:44.803Z,51.00
2018-12-23T06:06:13.012Z,50.90
2018-12-23T06:08:41.244Z,50.90
2018-12-23T06:11:09.446Z,50.90
2018-12-23T06:13:37.687Z,50.90
2018-12-23T06:16:05.894Z,51.00
2018-12-23T06:18:34.111Z,51.00
2018-12-23T06:21:03.256Z,50.90
2018-12-23T06:23:31.481Z,51.00
2018-12-23T06:25:59.694Z,51.00
2018-12-23T06:28:29.918Z,50.90
2018-12-23T06:30:58.150Z,50.90
2018-12-23T06:33:28.362Z,51.00
2018-12-23T06:35:56.581Z,50.90
2018-12-23T06:38:26.805Z,50.90
2018-12-23T06:40:55.041Z,50.90
2018-12-23T06:43:23.261Z,50.90
2018-12-23T06:45:51.484Z,50.90
2018-12-23T06:48:26.521Z,51.00
2018-12-23T06:50:54.747Z,50.90
2018-12-23T06:53:22.975Z,50.90
2018-12-23T06:55:53.223Z,51.00
2018-12-23T06:58:21.521Z,50.90
2018-12-23T07:00:49.798Z,50.90
2018-12-23T07:03:19.148Z,51.00
2018-12-23T07:05:47.336Z,51.00
2018-12-23T07:08:15.907Z,51.00
2018-12-23T07:10:44.113Z,51.00
2018-12-23T07:13:12.337Z,50.90
2018-12-23T07:15:40.546Z,51.60
2018-12-23T07:18:08.750Z,50.90
2018-12-23T07:20:37.361Z,50.90
2018-12-23T07:23:05.593Z,51.00
2018-12-23T07:25:33.797Z,50.90
2018-12-23T07:28:02.093Z,51.70
2018-12-23T07:30:31.342Z,50.90
2018-12-23T07:32:59.550Z,50.90
2018-12-23T07:35:27.748Z,50.90
2018-12-23T07:37:55.949Z,51.00
2018-12-23T07:40:24.176Z,51.00
2018-12-23T07:42:52.364Z,51.00
2018-12-23T07:45:21.093Z,51.00
2018-12-23T07:47:49.317Z,50.90
2018-12-23T07:50:17.706Z,50.90
2018-12-23T07:52:45.918Z,50.90
2018-12-23T07:55:14.153Z,50.90
2018-12-23T07:57:42.378Z,51.00
2018-12-23T08:00:10.682Z,50.90
2018-12-23T08:02:39.425Z,51.00
2018-12-23T08:05:07.640Z,50.90
2018-12-23T08:07:36.239Z,51.60
2018-12-23T08:10:05.112Z,50.90
2018-12-23T08:12:33.337Z,50.90
2018-12-23T08:15:01.524Z,50.80
2018-12-23T08:17:29.757Z,50.80
2018-12-23T08:19:57.998Z,50.90
2018-12-23T08:22:26.193Z,50.90
2018-12-23T08:24:57.171Z,50.90
2018-12-23T08:27:26.258Z,50.90
2018-12-23T08:29:54.458Z,51.00
2018-12-23T08:32:22.701Z,50.80
2018-12-23T08:34:50.957Z,50.90
2018-12-23T08:37:19.169Z,50.80
2018-12-23T08:39:47.397Z,50.90
2018-12-23T08:42:15.610Z,50.90
2018-12-23T08:44:43.821Z,50.80
2018-12-23T08:47:12.109Z,50.70
2018-12-23T08:49:41.324Z,50.80
2018-12-23T08:52:09.541Z,51.00
2018-12-23T08:54:37.756Z,51.10
2018-12-23T08:57:05.981Z,51.00
2018-12-23T08:59:35.166Z,51.00
2018-12-23T09:02:04.056Z,51.00
2018-12-23T09:04:32.314Z,51.00
2018-12-23T09:07:00.578Z,50.90
2018-12-23T09:09:29.034Z,50.90
2018-12-23T09:11:57.229Z,50.80
2018-12-23T09:14:25.417Z,50.80
2018-12-23T09:16:53.667Z,50.90
2018-12-23T09:19:21.861Z,50.80
2018-12-23T09:21:50.082Z,50.90
2018-12-23T09:24:18.405Z,50.90
2018-12-23T09:26:47.172Z,50.90
2018-12-23T09:29:16.415Z,51.00
2018-12-23T09:31:44.613Z,50.90
2018-12-23T09:34:12.830Z,50.80
2018-12-23T09:36:41.013Z,50.90
2018-12-23T09:39:09.247Z,50.80
2018-12-23T09:41:37.446Z,50.90
2018-12-23T09:44:06.664Z,50.90
2018-12-23T09:46:34.916Z,50.90
2018-12-23T09:49:03.113Z,51.20
2018-12-23T09:51:31.350Z,51.30
2018-12-23T09:53:59.599Z,51.30
2018-12-23T09:56:27.857Z,51.40
2018-12-23T09:58:56.151Z,51.40
2018-12-23T10:01:24.419Z,51.50
2018-12-23T10:03:53.099Z,51.60
2018-12-23T10:06:21.373Z,51.60
2018-12-23T10:08:50.633Z,51.60
2018-12-23T10:11:19.859Z,51.70
2018-12-23T10:13:48.102Z,51.60
2018-12-23T10:16:17.347Z,51.60
2018-12-23T10:18:52.365Z,51.60
2018-12-23T10:21:21.058Z,51.60
2018-12-23T10:23:50.768Z,51.70
2018-12-23T10:26:19.041Z,51.70
2018-12-23T10:28:47.261Z,51.70
2018-12-23T10:31:15.501Z,51.70
2018-12-23T10:33:43.721Z,51.70
2018-12-23T10:36:12.007Z,51.80
2018-12-23T10:38:40.218Z,51.70
2018-12-23T10:41:08.484Z,51.60
2018-12-23T10:43:36.717Z,51.70
2018-12-23T10:46:05.085Z,51.60
2018-12-23T10:48:33.320Z,51.70
2018-12-23T10:51:01.746Z,51.70
2018-12-23T10:53:30.970Z,51.80
2018-12-23T10:55:59.185Z,51.60
2018-12-23T10:58:27.421Z,51.70
2018-12-23T11:00:55.627Z,51.70
2018-12-23T11:03:23.853Z,51.70
2018-12-23T11:05:52.059Z,51.70
2018-12-23T11:08:26.827Z,51.70
2018-12-23T11:10:51.343Z,51.70
2018-12-23T11:13:19.620Z,51.60
2018-12-23T11:15:48.014Z,51.60
2018-12-23T11:18:16.338Z,51.60
2018-12-23T11:20:45.538Z,51.50
2018-12-23T11:23:13.777Z,51.40
2018-12-23T11:25:42.001Z,51.50
2018-12-23T11:28:10.214Z,51.40
2018-12-23T11:30:38.485Z,51.50
2018-12-23T11:33:08.123Z,51.40
2018-12-23T11:35:36.338Z,51.40
2018-12-23T11:38:04.673Z,51.40
2018-12-23T11:40:32.914Z,51.40
2018-12-23T11:43:01.117Z,51.40
2018-12-23T11:45:29.454Z,51.40
2018-12-23T11:47:57.822Z,51.30
2018-12-23T11:50:26.729Z,51.30
2018-12-23T11:52:56.171Z,51.40
2018-12-23T11:55:31.732Z,51.50
2018-12-23T11:58:00.802Z,51.50
2018-12-23T12:00:30.368Z,51.50
2018-12-23T12:02:59.397Z,51.60
2018-12-23T12:05:28.409Z,51.50
2018-12-23T12:07:57.379Z,51.60
2018-12-23T12:10:26.279Z,51.60
2018-12-23T12:12:55.240Z,52.40
2018-12-23T12:15:23.500Z,51.70
2018-12-23T12:17:52.444Z,51.80
2018-12-23T12:20:20.674Z,51.60
2018-12-23T12:22:49.944Z,52.30
2018-12-23T12:25:18.181Z,51.80
2018-12-23T12:27:46.782Z,51.80
2018-12-23T12:30:15.018Z,51.80
2018-12-23T12:32:43.901Z,51.80
2018-12-23T12:35:12.214Z,51.90
2018-12-23T12:37:40.608Z,51.90
2018-12-23T12:40:08.801Z,51.80
2018-12-23T12:42:39.049Z,51.80
2018-12-23T12:45:07.283Z,51.90
2018-12-23T12:47:35.965Z,52.00
2018-12-23T12:50:05.646Z,51.90
2018-12-23T12:52:34.589Z,51.90
2018-12-23T12:55:03.587Z,51.90
2018-12-23T12:57:33.054Z,51.90
2018-12-23T13:00:01.927Z,51.90
2018-12-23T13:02:31.460Z,51.90
2018-12-23T13:04:59.727Z,51.90
2018-12-23T13:07:27.970Z,52.00
2018-12-23T13:09:56.282Z,52.00
2018-12-23T13:12:24.589Z,52.00
2018-12-23T13:14:52.795Z,52.00
2018-12-23T13:17:21.000Z,52.00
2018-12-23T13:19:50.206Z,51.90
2018-12-23T13:22:18.418Z,51.90
2018-12-23T13:24:46.660Z,51.90
2018-12-23T13:27:14.865Z,51.90
2018-12-23T13:29:43.085Z,51.80
2018-12-23T13:32:11.736Z,51.90
2018-12-23T13:34:39.971Z,51.70
2018-12-23T13:37:08.477Z,51.70
2018-12-23T13:39:36.757Z,51.70
2018-12-23T13:42:17.739Z,51.80
2018-12-23T13:46:32.287Z,51.70
2018-12-23T13:49:21.225Z,51.70
2018-12-23T13:52:58.595Z,51.70
2018-12-23T13:57:44.631Z,51.80
2018-12-23T14:00:24.270Z,51.90
2018-12-23T14:02:59.525Z,51.90
2018-12-23T14:05:38.630Z,51.90
2018-12-23T14:11:25.230Z,52.00
2018-12-23T14:13:54.453Z,51.90
2018-12-23T14:16:22.694Z,51.90
2018-12-23T14:18:52.296Z,52.30
2018-12-23T14:21:20.505Z,52.40
2018-12-23T14:23:48.723Z,52.60
2018-12-23T14:26:17.057Z,52.80
2018-12-23T14:28:45.261Z,52.80
2018-12-23T14:31:13.483Z,52.80
2018-12-23T14:33:41.685Z,52.80
2018-12-23T14:36:09.923Z,52.80
2018-12-23T14:38:38.147Z,52.90
2018-12-23T14:41:06.392Z,52.80
2018-12-23T14:43:35.486Z,52.80
2018-12-23T14:46:05.052Z,52.80
2018-12-23T14:48:34.304Z,52.30
2018-12-23T14:51:02.589Z,51.40
2018-12-23T14:53:30.866Z,50.80
2018-12-23T14:55:59.136Z,50.30
2018-12-23T14:58:27.492Z,50.00
2018-12-23T15:00:56.381Z,50.00
2018-12-23T15:03:31.133Z,50.30
2018-12-23T15:06:00.006Z,50.50
2018-12-23T15:08:28.266Z,50.70
2018-12-23T15:10:56.485Z,50.60
2018-12-23T15:13:24.753Z,50.80
2018-12-23T15:15:52.976Z,51.40
2018-12-23T15:18:21.194Z,50.80
2018-12-23T15:20:49.856Z,51.00
2018-12-23T15:23:18.068Z,51.20
2018-12-23T15:25:46.326Z,51.20
2018-12-23T15:28:15.368Z,51.60
2018-12-23T15:30:43.577Z,51.60
2018-12-23T15:33:11.834Z,51.50
2018-12-23T15:35:41.680Z,51.60
2018-12-23T15:38:10.178Z,51.60
2018-12-23T15:40:38.390Z,51.50
2018-12-23T15:43:06.644Z,51.50
2018-12-23T15:45:34.838Z,51.50
2018-12-23T15:48:03.909Z,51.50
2018-12-23T15:50:32.129Z,51.60
2018-12-23T15:53:00.382Z,51.60
2018-12-23T15:57:38.417Z,51.10
2018-12-23T16:00:19.311Z,52.00
2018-12-23T16:05:35.225Z,51.80
2018-12-23T16:08:23.256Z,51.80
2018-12-23T16:11:03.755Z,51.80
2018-12-23T16:16:23.371Z,51.80
2018-12-23T16:19:08.550Z,52.00
2018-12-23T16:21:52.586Z,52.00
2018-12-23T16:24:35.551Z,52.10
2018-12-23T16:27:17.718Z,52.20
2018-12-23T16:30:00.807Z,52.30
2018-12-23T16:32:43.566Z,52.30
2018-12-23T16:35:24.859Z,52.30
2018-12-23T16:38:04.696Z,52.40
2018-12-23T16:43:32.784Z,52.50
2018-12-23T16:48:59.638Z,52.70
2018-12-23T16:51:44.947Z,52.70
2018-12-23T16:54:33.790Z,52.70
2018-12-23T17:00:28.370Z,52.40
2018-12-23T17:02:57.212Z,52.70
2018-12-23T17:05:45.244Z,52.70
2018-12-23T17:08:33.278Z,52.80
2018-12-23T17:11:16.811Z,52.70
2018-12-23T17:16:44.151Z,52.70
2018-12-23T17:19:26.503Z,52.70
2018-12-23T17:22:07.045Z,53.40
2018-12-23T17:24:48.573Z,52.70
2018-12-23T17:27:32.264Z,52.70
2018-12-23T17:30:13.420Z,52.70
2018-12-23T17:32:54.526Z,52.70
2018-12-23T17:35:35.462Z,52.70
2018-12-23T17:38:16.711Z,52.70
2018-12-23T17:43:46.837Z,52.60
2018-12-23T17:49:01.182Z,52.60
2018-12-23T17:51:49.309Z,52.50
2018-12-23T17:54:32.235Z,52.50
2018-12-23T17:59:59.336Z,52.50
2018-12-23T18:05:25.479Z,52.50
2018-12-23T18:10:38.774Z,52.50
2018-12-23T18:13:26.851Z,52.50
2018-12-23T18:16:07.586Z,52.50
2018-12-23T18:21:26.394Z,52.50
2018-12-23T18:26:46.382Z,52.50
2018-12-23T18:32:12.588Z,52.50
2018-12-23T18:37:32.594Z,52.50
2018-12-23T18:40:14.659Z,52.40
2018-12-23T18:42:55.528Z,52.50
2018-12-23T18:48:23.854Z,52.50
2018-12-23T18:53:51.418Z,52.40
2018-12-23T18:56:32.526Z,52.40
2018-12-23T18:59:01.390Z,52.50
2018-12-23T19:02:08.910Z,52.50
2018-12-23T19:04:49.303Z,52.50
2018-12-23T19:10:14.922Z,52.40
2018-12-23T19:15:41.006Z,52.40
2018-12-23T19:18:49.290Z,52.50
2018-12-23T19:21:31.559Z,52.50
2018-12-23T19:26:51.166Z,52.40
2018-12-23T19:29:32.917Z,52.40
2018-12-23T19:32:13.949Z,52.40
2018-12-23T19:34:53.512Z,52.40
2018-12-23T19:37:34.897Z,52.40
2018-12-23T19:40:15.799Z,52.40
2018-12-23T19:42:56.375Z,52.40
2018-12-23T19:48:22.310Z,52.40
2018-12-23T19:53:48.947Z,52.50
2018-12-23T19:56:30.165Z,52.50
2018-12-23T19:59:11.090Z,52.50
2018-12-23T20:01:51.885Z,52.50
2018-12-23T20:04:32.849Z,52.50
2018-12-23T20:10:00.535Z,52.50
2018-12-23T20:15:28.539Z,52.30
2018-12-23T20:21:20.288Z,52.40
2018-12-23T20:26:46.224Z,52.40
2018-12-23T20:32:23.653Z,52.40
2018-12-23T20:35:30.900Z,52.40
2018-12-23T20:38:12.021Z,52.40
2018-12-23T20:44:18.366Z,52.30
2018-12-23T20:47:25.584Z,52.40
2018-12-23T20:50:06.194Z,52.50
2018-12-23T20:55:33.490Z,52.40
2018-12-23T21:01:00.142Z,52.40
2018-12-23T21:06:28.368Z,52.50
2018-12-23T21:09:35.623Z,52.50
2018-12-23T21:12:16.531Z,52.50
2018-12-23T21:14:57.990Z,52.50
2018-12-23T21:20:24.644Z,52.50
2018-12-23T21:25:56.862Z,52.50
2018-12-23T21:29:05.336Z,52.40
2018-12-23T21:34:30.992Z,52.50
2018-12-23T21:37:11.547Z,52.40
2018-12-23T21:39:52.281Z,52.40
2018-12-23T21:42:46.191Z,52.40
2018-12-23T21:45:27.622Z,52.40
2018-12-23T21:50:55.838Z,52.40
2018-12-23T21:56:26.667Z,52.40
2018-12-23T21:59:34.914Z,52.40
2018-12-23T22:02:16.618Z,52.40
2018-12-23T22:07:47.222Z,52.30
2018-12-23T22:13:12.281Z,52.40
2018-12-23T22:18:33.121Z,52.30
2018-12-23T22:21:14.330Z,52.30
2018-12-23T22:23:55.605Z,52.30
2018-12-23T22:29:24.724Z,52.20
2018-12-23T22:34:51.502Z,52.20
2018-12-23T22:40:18.107Z,51.80
2018-12-23T22:42:59.957Z,51.80
2018-12-23T22:45:41.234Z,51.70
2018-12-23T22:48:25.046Z,51.70
2018-12-23T22:51:05.575Z,51.70
2018-12-23T22:56:24.162Z,51.90
2018-12-23T23:01:48.544Z,52.00
2018-12-23T23:04:29.403Z,52.00
2018-12-23T23:07:10.783Z,52.10
2018-12-23T23:09:52.239Z,52.10
2018-12-23T23:15:20.740Z,52.00
2018-12-23T23:20:46.998Z,51.90
2018-12-23T23:26:13.473Z,51.80
2018-12-23T23:28:55.114Z,51.90
2018-12-23T23:31:36.000Z,51.90
2018-12-23T23:34:17.843Z,51.90
2018-12-23T23:36:58.387Z,52.50
2018-12-23T23:42:24.746Z,51.80
2018-12-23T23:47:51.105Z,51.80
2018-12-23T23:50:34.798Z,51.80
2018-12-23T23:53:16.909Z,51.70
2018-12-23T23:55:58.175Z,51.70
2018-12-23T23:58:38.770Z,51.70
